sensor_id;sensor_type;location;lat;lon;timestamp;temperature;humidity
19279;DHT22;9773;47.062;15.446;2023-09-07T00:00:23;16.90;99.90
19279;DHT22;9773;47.062;15.446;2023-09-07T00:02:49;16.80;99.90
19279;DHT22;9773;47.062;15.446;2023-09-07T00:05:15;16.90;99.90
19279;DHT22;9773;47.062;15.446;2023-09-07T00:07:41;16.90;99.90
19279;DHT22;9773;47.062;15.446;2023-09-07T00:10:08;16.80;99.90
19279;DHT22;9773;47.062;15.446;2023-09-07T00:12:34;16.80;99.90
19279;DHT22;9773;47.062;15.446;2023-09-07T00:15:00;16.80;99.90
19279;DHT22;9773;47.062;15.446;2023-09-07T00:17:25;16.80;99.90
19279;DHT22;9773;47.062;15.446;2023-09-07T00:19:51;16.80;99.90
19279;DHT22;9773;47.062;15.446;2023-09-07T00:22:18;16.80;99.90
19279;DHT22;9773;47.062;15.446;2023-09-07T00:24:46;16.80;99.90
19279;DHT22;9773;47.062;15.446;2023-09-07T00:27:11;16.80;99.90
19279;DHT22;9773;47.062;15.446;2023-09-07T00:29:39;16.80;99.90
19279;DHT22;9773;47.062;15.446;2023-09-07T00:32:05;16.80;99.90
19279;DHT22;9773;47.062;15.446;2023-09-07T00:34:33;16.80;99.90
19279;DHT22;9773;47.062;15.446;2023-09-07T00:36:59;16.80;99.90
19279;DHT22;9773;47.062;15.446;2023-09-07T00:39:25;16.80;99.90
19279;DHT22;9773;47.062;15.446;2023-09-07T00:41:51;16.70;99.90
19279;DHT22;9773;47.062;15.446;2023-09-07T00:44:17;16.70;99.90
19279;DHT22;9773;47.062;15.446;2023-09-07T00:46:43;16.70;99.90
19279;DHT22;9773;47.062;15.446;2023-09-07T00:49:13;16.70;99.90
19279;DHT22;9773;47.062;15.446;2023-09-07T00:51:39;16.70;99.90
19279;DHT22;9773;47.062;15.446;2023-09-07T00:54:05;16.70;99.90
19279;DHT22;9773;47.062;15.446;2023-09-07T00:56:31;16.70;99.90
19279;DHT22;9773;47.062;15.446;2023-09-07T00:58:58;16.70;99.90
19279;DHT22;9773;47.062;15.446;2023-09-07T01:01:26;16.60;99.90
19279;DHT22;9773;47.062;15.446;2023-09-07T01:03:52;16.60;99.90
19279;DHT22;9773;47.062;15.446;2023-09-07T01:08:55;16.60;99.90
19279;DHT22;9773;47.062;15.446;2023-09-07T01:11:22;16.60;99.90
19279;DHT22;9773;47.062;15.446;2023-09-07T01:13:52;16.60;99.90
19279;DHT22;9773;47.062;15.446;2023-09-07T01:16:20;16.50;99.90
19279;DHT22;9773;47.062;15.446;2023-09-07T01:18:46;16.50;99.90
19279;DHT22;9773;47.062;15.446;2023-09-07T01:21:13;16.50;99.90
19279;DHT22;9773;47.062;15.446;2023-09-07T01:23:42;16.50;99.90
19279;DHT22;9773;47.062;15.446;2023-09-07T01:26:09;16.50;99.90
19279;DHT22;9773;47.062;15.446;2023-09-07T01:28:35;16.50;99.90
19279;DHT22;9773;47.062;15.446;2023-09-07T01:31:03;16.50;99.90
19279;DHT22;9773;47.062;15.446;2023-09-07T01:33:28;16.50;99.90
19279;DHT22;9773;47.062;15.446;2023-09-07T01:35:54;16.50;99.90
19279;DHT22;9773;47.062;15.446;2023-09-07T01:38:20;16.50;99.90
19279;DHT22;9773;47.062;15.446;2023-09-07T01:40:46;16.50;99.90
19279;DHT22;9773;47.062;15.446;2023-09-07T01:43:12;16.40;99.90
19279;DHT22;9773;47.062;15.446;2023-09-07T01:45:38;16.40;99.90
19279;DHT22;9773;47.062;15.446;2023-09-07T01:48:10;16.40;99.90
19279;DHT22;9773;47.062;15.446;2023-09-07T01:50:36;16.40;99.90
19279;DHT22;9773;47.062;15.446;2023-09-07T01:53:02;16.50;99.90
19279;DHT22;9773;47.062;15.446;2023-09-07T01:55:31;16.50;99.90
19279;DHT22;9773;47.062;15.446;2023-09-07T01:57:57;16.40;99.90
19279;DHT22;9773;47.062;15.446;2023-09-07T02:00:23;16.40;99.90
19279;DHT22;9773;47.062;15.446;2023-09-07T02:02:49;16.40;99.90
19279;DHT22;9773;47.062;15.446;2023-09-07T02:05:15;16.40;99.90
19279;DHT22;9773;47.062;15.446;2023-09-07T02:07:42;16.30;99.90
19279;DHT22;9773;47.062;15.446;2023-09-07T02:10:08;16.30;99.90
19279;DHT22;9773;47.062;15.446;2023-09-07T02:12:34;16.30;99.90
19279;DHT22;9773;47.062;15.446;2023-09-07T02:15:02;16.30;99.90
19279;DHT22;9773;47.062;15.446;2023-09-07T02:17:29;16.30;99.90
19279;DHT22;9773;47.062;15.446;2023-09-07T02:19:57;16.30;99.90
19279;DHT22;9773;47.062;15.446;2023-09-07T02:22:22;16.30;99.90
19279;DHT22;9773;47.062;15.446;2023-09-07T02:24:49;16.20;99.90
19279;DHT22;9773;47.062;15.446;2023-09-07T02:27:15;16.20;99.90
19279;DHT22;9773;47.062;15.446;2023-09-07T02:29:41;16.20;99.90
19279;DHT22;9773;47.062;15.446;2023-09-07T02:32:07;16.20;99.90
19279;DHT22;9773;47.062;15.446;2023-09-07T02:34:34;16.10;99.90
19279;DHT22;9773;47.062;15.446;2023-09-07T02:37:02;16.10;99.90
19279;DHT22;9773;47.062;15.446;2023-09-07T02:39:28;16.20;99.90
19279;DHT22;9773;47.062;15.446;2023-09-07T02:41:54;16.10;99.90
19279;DHT22;9773;47.062;15.446;2023-09-07T02:44:19;16.10;99.90
19279;DHT22;9773;47.062;15.446;2023-09-07T02:46:45;16.10;99.90
19279;DHT22;9773;47.062;15.446;2023-09-07T02:49:12;16.10;99.90
19279;DHT22;9773;47.062;15.446;2023-09-07T02:51:38;16.10;99.90
19279;DHT22;9773;47.062;15.446;2023-09-07T02:54:04;16.00;99.90
19279;DHT22;9773;47.062;15.446;2023-09-07T02:56:30;16.10;99.90
19279;DHT22;9773;47.062;15.446;2023-09-07T02:58:56;16.10;99.90
19279;DHT22;9773;47.062;15.446;2023-09-07T03:01:22;16.10;99.90
19279;DHT22;9773;47.062;15.446;2023-09-07T03:03:48;16.00;99.90
19279;DHT22;9773;47.062;15.446;2023-09-07T03:06:15;16.00;99.90
19279;DHT22;9773;47.062;15.446;2023-09-07T03:08:46;16.00;99.90
19279;DHT22;9773;47.062;15.446;2023-09-07T03:11:13;16.00;99.90
19279;DHT22;9773;47.062;15.446;2023-09-07T03:13:38;16.00;99.90
19279;DHT22;9773;47.062;15.446;2023-09-07T03:16:05;16.00;99.90
19279;DHT22;9773;47.062;15.446;2023-09-07T03:18:31;16.00;99.90
19279;DHT22;9773;47.062;15.446;2023-09-07T03:20:59;16.00;99.90
19279;DHT22;9773;47.062;15.446;2023-09-07T03:23:27;16.00;99.90
19279;DHT22;9773;47.062;15.446;2023-09-07T03:25:53;16.00;99.90
19279;DHT22;9773;47.062;15.446;2023-09-07T03:28:19;15.90;99.90
19279;DHT22;9773;47.062;15.446;2023-09-07T03:30:44;15.90;99.90
19279;DHT22;9773;47.062;15.446;2023-09-07T03:33:10;15.90;99.90
19279;DHT22;9773;47.062;15.446;2023-09-07T03:35:36;15.90;99.90
19279;DHT22;9773;47.062;15.446;2023-09-07T03:38:03;16.00;99.90
19279;DHT22;9773;47.062;15.446;2023-09-07T03:40:29;15.90;99.90
19279;DHT22;9773;47.062;15.446;2023-09-07T03:42:54;15.90;99.90
19279;DHT22;9773;47.062;15.446;2023-09-07T03:45:20;16.00;99.90
19279;DHT22;9773;47.062;15.446;2023-09-07T03:47:46;15.90;99.90
19279;DHT22;9773;47.062;15.446;2023-09-07T03:50:12;15.90;99.90
19279;DHT22;9773;47.062;15.446;2023-09-07T03:52:37;15.90;99.90
19279;DHT22;9773;47.062;15.446;2023-09-07T03:55:03;15.90;99.90
19279;DHT22;9773;47.062;15.446;2023-09-07T03:57:29;15.90;99.90
19279;DHT22;9773;47.062;15.446;2023-09-07T03:59:56;15.90;99.90
19279;DHT22;9773;47.062;15.446;2023-09-07T04:02:23;15.80;99.90
19279;DHT22;9773;47.062;15.446;2023-09-07T04:04:50;15.80;99.90
19279;DHT22;9773;47.062;15.446;2023-09-07T04:07:16;15.80;99.90
19279;DHT22;9773;47.062;15.446;2023-09-07T04:09:42;15.80;99.90
19279;DHT22;9773;47.062;15.446;2023-09-07T04:12:09;15.90;99.90
19279;DHT22;9773;47.062;15.446;2023-09-07T04:14:34;15.80;99.90
19279;DHT22;9773;47.062;15.446;2023-09-07T04:17:01;15.80;99.90
19279;DHT22;9773;47.062;15.446;2023-09-07T04:19:26;15.80;99.90
19279;DHT22;9773;47.062;15.446;2023-09-07T04:21:52;15.80;99.90
19279;DHT22;9773;47.062;15.446;2023-09-07T04:24:18;15.70;99.90
19279;DHT22;9773;47.062;15.446;2023-09-07T04:26:44;15.70;99.90
19279;DHT22;9773;47.062;15.446;2023-09-07T04:29:11;15.70;99.90
19279;DHT22;9773;47.062;15.446;2023-09-07T04:31:39;15.80;99.90
19279;DHT22;9773;47.062;15.446;2023-09-07T04:34:05;15.80;99.90
19279;DHT22;9773;47.062;15.446;2023-09-07T04:36:31;15.80;99.90
19279;DHT22;9773;47.062;15.446;2023-09-07T04:38:57;15.80;99.90
19279;DHT22;9773;47.062;15.446;2023-09-07T04:41:23;15.70;99.90
19279;DHT22;9773;47.062;15.446;2023-09-07T04:43:48;15.70;99.90
19279;DHT22;9773;47.062;15.446;2023-09-07T04:46:14;15.70;99.90
19279;DHT22;9773;47.062;15.446;2023-09-07T04:48:42;15.70;99.90
19279;DHT22;9773;47.062;15.446;2023-09-07T04:51:09;15.80;99.90
19279;DHT22;9773;47.062;15.446;2023-09-07T04:53:37;15.80;99.90
19279;DHT22;9773;47.062;15.446;2023-09-07T04:56:04;15.80;99.90
19279;DHT22;9773;47.062;15.446;2023-09-07T04:58:30;15.80;99.90
19279;DHT22;9773;47.062;15.446;2023-09-07T05:01:09;15.90;99.90
19279;DHT22;9773;47.062;15.446;2023-09-07T05:03:36;15.80;99.90
19279;DHT22;9773;47.062;15.446;2023-09-07T05:06:04;15.80;99.90
19279;DHT22;9773;47.062;15.446;2023-09-07T05:08:30;15.80;99.90
19279;DHT22;9773;47.062;15.446;2023-09-07T05:10:56;15.70;99.90
19279;DHT22;9773;47.062;15.446;2023-09-07T05:13:23;15.80;99.90
19279;DHT22;9773;47.062;15.446;2023-09-07T05:15:50;15.80;99.90
19279;DHT22;9773;47.062;15.446;2023-09-07T05:18:17;15.80;99.90
19279;DHT22;9773;47.062;15.446;2023-09-07T05:20:43;15.80;99.90
19279;DHT22;9773;47.062;15.446;2023-09-07T05:23:12;16.50;99.90
19279;DHT22;9773;47.062;15.446;2023-09-07T05:25:45;15.90;99.90
19279;DHT22;9773;47.062;15.446;2023-09-07T05:28:13;16.00;99.90
19279;DHT22;9773;47.062;15.446;2023-09-07T05:30:41;16.00;99.90
19279;DHT22;9773;47.062;15.446;2023-09-07T05:33:11;16.10;99.90
19279;DHT22;9773;47.062;15.446;2023-09-07T05:35:39;16.10;99.90
19279;DHT22;9773;47.062;15.446;2023-09-07T05:38:06;16.10;99.90
19279;DHT22;9773;47.062;15.446;2023-09-07T05:40:39;16.10;99.90
19279;DHT22;9773;47.062;15.446;2023-09-07T05:43:05;16.20;99.90
19279;DHT22;9773;47.062;15.446;2023-09-07T05:45:41;16.20;99.90
19279;DHT22;9773;47.062;15.446;2023-09-07T05:48:08;16.30;99.90
19279;DHT22;9773;47.062;15.446;2023-09-07T05:50:37;16.30;99.90
19279;DHT22;9773;47.062;15.446;2023-09-07T05:53:03;16.40;99.90
19279;DHT22;9773;47.062;15.446;2023-09-07T05:55:30;16.50;99.90
19279;DHT22;9773;47.062;15.446;2023-09-07T05:57:56;16.50;99.90
19279;DHT22;9773;47.062;15.446;2023-09-07T06:00:23;16.60;99.90
19279;DHT22;9773;47.062;15.446;2023-09-07T06:02:49;16.60;99.90
19279;DHT22;9773;47.062;15.446;2023-09-07T06:05:15;16.70;99.90
19279;DHT22;9773;47.062;15.446;2023-09-07T06:07:41;16.70;99.90
19279;DHT22;9773;47.062;15.446;2023-09-07T06:10:07;16.80;99.90
19279;DHT22;9773;47.062;15.446;2023-09-07T06:12:33;16.90;99.90
19279;DHT22;9773;47.062;15.446;2023-09-07T06:15:00;17.00;99.90
19279;DHT22;9773;47.062;15.446;2023-09-07T06:17:27;17.10;99.90
19279;DHT22;9773;47.062;15.446;2023-09-07T06:19:54;17.10;99.90
19279;DHT22;9773;47.062;15.446;2023-09-07T06:22:20;17.10;99.90
19279;DHT22;9773;47.062;15.446;2023-09-07T06:24:46;17.20;99.90
19279;DHT22;9773;47.062;15.446;2023-09-07T06:27:12;17.20;99.90
19279;DHT22;9773;47.062;15.446;2023-09-07T06:29:37;17.30;99.90
19279;DHT22;9773;47.062;15.446;2023-09-07T06:32:04;17.30;99.90
19279;DHT22;9773;47.062;15.446;2023-09-07T06:34:30;17.40;99.90
19279;DHT22;9773;47.062;15.446;2023-09-07T06:36:56;17.50;99.90
19279;DHT22;9773;47.062;15.446;2023-09-07T06:39:22;17.60;99.90
19279;DHT22;9773;47.062;15.446;2023-09-07T06:41:48;17.60;99.90
19279;DHT22;9773;47.062;15.446;2023-09-07T06:44:15;17.60;99.90
19279;DHT22;9773;47.062;15.446;2023-09-07T06:46:41;17.70;99.90
19279;DHT22;9773;47.062;15.446;2023-09-07T06:49:06;17.80;99.90
19279;DHT22;9773;47.062;15.446;2023-09-07T06:51:33;17.90;99.90
19279;DHT22;9773;47.062;15.446;2023-09-07T06:53:59;17.90;99.90
19279;DHT22;9773;47.062;15.446;2023-09-07T06:56:25;17.90;99.90
19279;DHT22;9773;47.062;15.446;2023-09-07T06:58:52;18.00;99.90
19279;DHT22;9773;47.062;15.446;2023-09-07T07:01:18;18.10;99.90
19279;DHT22;9773;47.062;15.446;2023-09-07T07:03:46;18.10;99.90
19279;DHT22;9773;47.062;15.446;2023-09-07T07:06:12;18.20;99.90
19279;DHT22;9773;47.062;15.446;2023-09-07T07:08:37;18.20;99.90
19279;DHT22;9773;47.062;15.446;2023-09-07T07:11:03;18.30;99.90
19279;DHT22;9773;47.062;15.446;2023-09-07T07:13:29;18.30;99.90
19279;DHT22;9773;47.062;15.446;2023-09-07T07:15:55;18.40;99.90
19279;DHT22;9773;47.062;15.446;2023-09-07T07:18:20;18.40;99.90
19279;DHT22;9773;47.062;15.446;2023-09-07T07:20:46;18.50;99.90
19279;DHT22;9773;47.062;15.446;2023-09-07T07:23:12;18.50;99.90
19279;DHT22;9773;47.062;15.446;2023-09-07T07:25:40;18.60;99.90
19279;DHT22;9773;47.062;15.446;2023-09-07T07:28:07;18.60;99.90
19279;DHT22;9773;47.062;15.446;2023-09-07T07:30:37;18.80;99.90
19279;DHT22;9773;47.062;15.446;2023-09-07T07:33:04;18.90;99.90
19279;DHT22;9773;47.062;15.446;2023-09-07T07:35:31;18.90;99.90
19279;DHT22;9773;47.062;15.446;2023-09-07T07:37:56;19.00;99.90
19279;DHT22;9773;47.062;15.446;2023-09-07T07:40:22;19.10;99.90
19279;DHT22;9773;47.062;15.446;2023-09-07T07:42:51;19.20;99.90
19279;DHT22;9773;47.062;15.446;2023-09-07T07:45:17;19.40;99.90
19279;DHT22;9773;47.062;15.446;2023-09-07T07:47:45;19.50;99.90
19279;DHT22;9773;47.062;15.446;2023-09-07T07:50:12;19.50;99.90
19279;DHT22;9773;47.062;15.446;2023-09-07T07:52:38;19.50;99.90
19279;DHT22;9773;47.062;15.446;2023-09-07T07:55:03;19.60;99.90
19279;DHT22;9773;47.062;15.446;2023-09-07T07:57:31;19.60;99.90
19279;DHT22;9773;47.062;15.446;2023-09-07T07:59:56;19.70;99.90
19279;DHT22;9773;47.062;15.446;2023-09-07T08:02:22;19.80;99.90
19279;DHT22;9773;47.062;15.446;2023-09-07T08:04:48;19.90;99.90
19279;DHT22;9773;47.062;15.446;2023-09-07T08:07:14;20.00;99.90
19279;DHT22;9773;47.062;15.446;2023-09-07T08:09:40;20.10;99.90
19279;DHT22;9773;47.062;15.446;2023-09-07T08:12:06;20.20;99.90
19279;DHT22;9773;47.062;15.446;2023-09-07T08:14:32;20.40;99.90
19279;DHT22;9773;47.062;15.446;2023-09-07T08:16:58;20.50;99.90
19279;DHT22;9773;47.062;15.446;2023-09-07T08:19:24;20.50;99.90
19279;DHT22;9773;47.062;15.446;2023-09-07T08:21:50;20.60;99.90
19279;DHT22;9773;47.062;15.446;2023-09-07T08:24:16;20.60;99.90
19279;DHT22;9773;47.062;15.446;2023-09-07T08:26:43;20.70;99.90
19279;DHT22;9773;47.062;15.446;2023-09-07T08:29:09;20.70;99.90
19279;DHT22;9773;47.062;15.446;2023-09-07T08:31:37;20.80;99.90
19279;DHT22;9773;47.062;15.446;2023-09-07T08:34:05;20.90;99.90
19279;DHT22;9773;47.062;15.446;2023-09-07T08:36:31;21.00;99.90
19279;DHT22;9773;47.062;15.446;2023-09-07T08:39:06;21.00;99.90
19279;DHT22;9773;47.062;15.446;2023-09-07T08:41:41;21.00;99.90
19279;DHT22;9773;47.062;15.446;2023-09-07T08:44:17;21.10;99.90
19279;DHT22;9773;47.062;15.446;2023-09-07T08:46:44;21.20;99.90
19279;DHT22;9773;47.062;15.446;2023-09-07T08:49:13;21.30;99.90
19279;DHT22;9773;47.062;15.446;2023-09-07T08:51:39;21.40;99.90
19279;DHT22;9773;47.062;15.446;2023-09-07T08:54:05;21.40;99.90
19279;DHT22;9773;47.062;15.446;2023-09-07T08:56:33;21.50;99.90
19279;DHT22;9773;47.062;15.446;2023-09-07T08:58:58;21.60;99.90
19279;DHT22;9773;47.062;15.446;2023-09-07T09:01:24;21.60;99.90
19279;DHT22;9773;47.062;15.446;2023-09-07T09:03:50;21.60;99.90
19279;DHT22;9773;47.062;15.446;2023-09-07T09:06:18;21.60;99.90
19279;DHT22;9773;47.062;15.446;2023-09-07T09:08:55;21.70;99.90
19279;DHT22;9773;47.062;15.446;2023-09-07T09:11:23;21.70;99.90
19279;DHT22;9773;47.062;15.446;2023-09-07T09:13:50;21.70;99.90
19279;DHT22;9773;47.062;15.446;2023-09-07T09:16:16;21.70;99.90
19279;DHT22;9773;47.062;15.446;2023-09-07T09:18:56;21.80;99.90
19279;DHT22;9773;47.062;15.446;2023-09-07T09:21:24;21.80;99.90
19279;DHT22;9773;47.062;15.446;2023-09-07T09:23:52;21.80;99.90
19279;DHT22;9773;47.062;15.446;2023-09-07T09:26:18;21.90;99.90
19279;DHT22;9773;47.062;15.446;2023-09-07T09:28:44;22.00;99.90
19279;DHT22;9773;47.062;15.446;2023-09-07T09:31:11;22.00;99.90
19279;DHT22;9773;47.062;15.446;2023-09-07T09:33:41;22.00;99.90
19279;DHT22;9773;47.062;15.446;2023-09-07T09:36:07;22.10;99.90
19279;DHT22;9773;47.062;15.446;2023-09-07T09:38:34;22.20;99.90
19279;DHT22;9773;47.062;15.446;2023-09-07T09:41:00;22.20;99.90
19279;DHT22;9773;47.062;15.446;2023-09-07T09:43:29;22.10;99.90
19279;DHT22;9773;47.062;15.446;2023-09-07T09:45:55;22.20;99.90
19279;DHT22;9773;47.062;15.446;2023-09-07T09:48:22;22.20;99.90
19279;DHT22;9773;47.062;15.446;2023-09-07T09:50:49;22.20;99.90
19279;DHT22;9773;47.062;15.446;2023-09-07T09:53:19;22.20;99.90
19279;DHT22;9773;47.062;15.446;2023-09-07T09:55:49;22.30;99.90
19279;DHT22;9773;47.062;15.446;2023-09-07T09:58:15;22.30;99.90
19279;DHT22;9773;47.062;15.446;2023-09-07T10:00:44;22.30;99.90
19279;DHT22;9773;47.062;15.446;2023-09-07T10:03:25;22.30;99.90
19279;DHT22;9773;47.062;15.446;2023-09-07T10:05:53;22.40;99.90
19279;DHT22;9773;47.062;15.446;2023-09-07T10:08:20;22.50;99.90
19279;DHT22;9773;47.062;15.446;2023-09-07T10:10:49;22.60;99.90
19279;DHT22;9773;47.062;15.446;2023-09-07T10:13:32;22.60;99.90
19279;DHT22;9773;47.062;15.446;2023-09-07T10:16:03;22.60;99.90
19279;DHT22;9773;47.062;15.446;2023-09-07T10:18:36;22.60;99.90
19279;DHT22;9773;47.062;15.446;2023-09-07T10:21:03;22.70;99.90
19279;DHT22;9773;47.062;15.446;2023-09-07T10:23:43;22.70;99.90
19279;DHT22;9773;47.062;15.446;2023-09-07T10:26:14;22.70;99.90
19279;DHT22;9773;47.062;15.446;2023-09-07T10:28:40;22.70;99.90
19279;DHT22;9773;47.062;15.446;2023-09-07T10:31:12;22.60;99.90
19279;DHT22;9773;47.062;15.446;2023-09-07T10:33:39;22.70;99.90
19279;DHT22;9773;47.062;15.446;2023-09-07T10:36:05;22.70;99.90
19279;DHT22;9773;47.062;15.446;2023-09-07T10:38:35;22.70;99.90
19279;DHT22;9773;47.062;15.446;2023-09-07T10:41:02;22.70;99.90
19279;DHT22;9773;47.062;15.446;2023-09-07T10:43:31;22.70;99.90
19279;DHT22;9773;47.062;15.446;2023-09-07T10:45:58;22.80;99.90
19279;DHT22;9773;47.062;15.446;2023-09-07T10:48:25;22.90;99.90
19279;DHT22;9773;47.062;15.446;2023-09-07T10:50:51;22.90;99.90
19279;DHT22;9773;47.062;15.446;2023-09-07T10:53:30;22.90;99.90
19279;DHT22;9773;47.062;15.446;2023-09-07T10:55:58;23.00;99.90
19279;DHT22;9773;47.062;15.446;2023-09-07T10:58:29;23.00;99.90
19279;DHT22;9773;47.062;15.446;2023-09-07T11:00:55;23.00;99.90
19279;DHT22;9773;47.062;15.446;2023-09-07T11:03:22;23.10;99.90
19279;DHT22;9773;47.062;15.446;2023-09-07T11:05:48;23.20;99.90
19279;DHT22;9773;47.062;15.446;2023-09-07T11:08:16;23.20;99.90
19279;DHT22;9773;47.062;15.446;2023-09-07T11:10:42;23.20;99.90
19279;DHT22;9773;47.062;15.446;2023-09-07T11:13:09;23.30;99.90
19279;DHT22;9773;47.062;15.446;2023-09-07T11:15:35;23.30;99.60
19279;DHT22;9773;47.062;15.446;2023-09-07T11:18:07;23.40;99.20
19279;DHT22;9773;47.062;15.446;2023-09-07T11:20:35;23.30;99.30
19279;DHT22;9773;47.062;15.446;2023-09-07T11:23:02;23.30;99.60
19279;DHT22;9773;47.062;15.446;2023-09-07T11:25:37;23.40;99.40
19279;DHT22;9773;47.062;15.446;2023-09-07T11:28:04;23.50;99.40
19279;DHT22;9773;47.062;15.446;2023-09-07T11:30:31;23.50;99.90
19279;DHT22;9773;47.062;15.446;2023-09-07T11:33:07;23.60;99.90
19279;DHT22;9773;47.062;15.446;2023-09-07T11:35:34;23.50;99.90
19279;DHT22;9773;47.062;15.446;2023-09-07T11:38:04;23.60;99.90
19279;DHT22;9773;47.062;15.446;2023-09-07T11:40:32;23.60;99.90
19279;DHT22;9773;47.062;15.446;2023-09-07T11:42:57;23.60;99.70
19279;DHT22;9773;47.062;15.446;2023-09-07T11:45:24;23.60;99.70
19279;DHT22;9773;47.062;15.446;2023-09-07T11:47:49;23.60;99.00
19279;DHT22;9773;47.062;15.446;2023-09-07T11:50:18;23.60;98.70
19279;DHT22;9773;47.062;15.446;2023-09-07T11:52:45;23.70;98.40
19279;DHT22;9773;47.062;15.446;2023-09-07T11:55:13;23.70;98.40
19279;DHT22;9773;47.062;15.446;2023-09-07T11:57:39;23.70;98.20
19279;DHT22;9773;47.062;15.446;2023-09-07T12:00:07;23.70;98.00
19279;DHT22;9773;47.062;15.446;2023-09-07T12:02:35;23.60;98.00
19279;DHT22;9773;47.062;15.446;2023-09-07T12:05:00;23.70;98.20
19279;DHT22;9773;47.062;15.446;2023-09-07T12:07:29;23.70;98.30
19279;DHT22;9773;47.062;15.446;2023-09-07T12:09:55;23.70;98.10
19279;DHT22;9773;47.062;15.446;2023-09-07T12:12:23;23.60;97.70
19279;DHT22;9773;47.062;15.446;2023-09-07T12:14:49;23.60;97.90
19279;DHT22;9773;47.062;15.446;2023-09-07T12:17:14;23.60;98.20
19279;DHT22;9773;47.062;15.446;2023-09-07T12:19:40;23.60;98.50
19279;DHT22;9773;47.062;15.446;2023-09-07T12:22:11;23.60;98.70
19279;DHT22;9773;47.062;15.446;2023-09-07T12:24:37;23.60;98.30
19279;DHT22;9773;47.062;15.446;2023-09-07T12:27:03;23.60;97.70
19279;DHT22;9773;47.062;15.446;2023-09-07T12:29:29;23.60;98.20
19279;DHT22;9773;47.062;15.446;2023-09-07T12:31:55;23.70;98.10
19279;DHT22;9773;47.062;15.446;2023-09-07T12:34:21;23.70;98.50
19279;DHT22;9773;47.062;15.446;2023-09-07T12:36:46;23.80;98.80
19279;DHT22;9773;47.062;15.446;2023-09-07T12:39:13;23.70;98.80
19279;DHT22;9773;47.062;15.446;2023-09-07T12:41:39;23.80;99.10
19279;DHT22;9773;47.062;15.446;2023-09-07T12:44:05;23.80;98.70
19279;DHT22;9773;47.062;15.446;2023-09-07T12:46:32;23.90;98.80
19279;DHT22;9773;47.062;15.446;2023-09-07T12:48:58;23.90;99.10
19279;DHT22;9773;47.062;15.446;2023-09-07T12:51:23;23.90;98.90
19279;DHT22;9773;47.062;15.446;2023-09-07T12:53:49;23.90;98.50
19279;DHT22;9773;47.062;15.446;2023-09-07T12:56:15;23.90;98.20
19279;DHT22;9773;47.062;15.446;2023-09-07T12:58:41;23.90;98.40
19279;DHT22;9773;47.062;15.446;2023-09-07T13:01:08;23.90;98.00
19279;DHT22;9773;47.062;15.446;2023-09-07T13:03:39;23.90;97.80
19279;DHT22;9773;47.062;15.446;2023-09-07T13:06:05;23.90;98.20
19279;DHT22;9773;47.062;15.446;2023-09-07T13:08:31;23.80;98.40
19279;DHT22;9773;47.062;15.446;2023-09-07T13:10:56;23.90;98.30
19279;DHT22;9773;47.062;15.446;2023-09-07T13:13:25;23.90;97.70
19279;DHT22;9773;47.062;15.446;2023-09-07T13:15:57;23.90;97.60
19279;DHT22;9773;47.062;15.446;2023-09-07T13:18:24;23.90;97.30
19279;DHT22;9773;47.062;15.446;2023-09-07T13:20:50;23.80;97.50
19279;DHT22;9773;47.062;15.446;2023-09-07T13:23:19;23.80;98.20
19279;DHT22;9773;47.062;15.446;2023-09-07T13:25:44;23.80;97.90
19279;DHT22;9773;47.062;15.446;2023-09-07T13:28:10;23.80;98.00
19279;DHT22;9773;47.062;15.446;2023-09-07T13:30:36;23.80;97.50
19279;DHT22;9773;47.062;15.446;2023-09-07T13:33:02;23.90;97.50
19279;DHT22;9773;47.062;15.446;2023-09-07T13:35:27;23.90;97.10
19279;DHT22;9773;47.062;15.446;2023-09-07T13:37:53;24.00;97.00
19279;DHT22;9773;47.062;15.446;2023-09-07T13:40:19;24.10;96.90
19279;DHT22;9773;47.062;15.446;2023-09-07T13:42:48;24.10;97.50
19279;DHT22;9773;47.062;15.446;2023-09-07T13:45:14;24.10;98.30
19279;DHT22;9773;47.062;15.446;2023-09-07T13:47:39;24.00;98.60
19279;DHT22;9773;47.062;15.446;2023-09-07T13:50:06;24.00;97.90
19279;DHT22;9773;47.062;15.446;2023-09-07T13:52:31;23.90;98.10
19279;DHT22;9773;47.062;15.446;2023-09-07T13:54:57;23.90;98.30
19279;DHT22;9773;47.062;15.446;2023-09-07T13:57:23;23.90;98.90
19279;DHT22;9773;47.062;15.446;2023-09-07T13:59:49;23.80;99.00
19279;DHT22;9773;47.062;15.446;2023-09-07T14:02:15;23.80;98.70
19279;DHT22;9773;47.062;15.446;2023-09-07T14:04:40;23.80;98.40
19279;DHT22;9773;47.062;15.446;2023-09-07T14:07:06;23.80;97.40
19279;DHT22;9773;47.062;15.446;2023-09-07T14:09:32;23.90;97.60
19279;DHT22;9773;47.062;15.446;2023-09-07T14:11:59;24.00;97.70
19279;DHT22;9773;47.062;15.446;2023-09-07T14:14:25;24.00;97.70
19279;DHT22;9773;47.062;15.446;2023-09-07T14:16:54;23.90;97.90
19279;DHT22;9773;47.062;15.446;2023-09-07T14:19:22;23.90;97.80
19279;DHT22;9773;47.062;15.446;2023-09-07T14:21:48;23.90;97.80
19279;DHT22;9773;47.062;15.446;2023-09-07T14:24:13;23.90;97.30
19279;DHT22;9773;47.062;15.446;2023-09-07T14:26:39;23.90;97.00
19279;DHT22;9773;47.062;15.446;2023-09-07T14:29:05;23.90;96.50
19279;DHT22;9773;47.062;15.446;2023-09-07T14:31:31;23.90;96.20
19279;DHT22;9773;47.062;15.446;2023-09-07T14:33:57;24.00;96.10
19279;DHT22;9773;47.062;15.446;2023-09-07T14:36:22;24.10;96.40
19279;DHT22;9773;47.062;15.446;2023-09-07T14:38:48;24.10;96.30
19279;DHT22;9773;47.062;15.446;2023-09-07T14:41:14;24.10;96.30
19279;DHT22;9773;47.062;15.446;2023-09-07T14:43:45;24.10;95.60
19279;DHT22;9773;47.062;15.446;2023-09-07T14:46:12;24.10;95.80
19279;DHT22;9773;47.062;15.446;2023-09-07T14:48:37;24.00;95.60
19279;DHT22;9773;47.062;15.446;2023-09-07T14:51:03;24.00;96.00
19279;DHT22;9773;47.062;15.446;2023-09-07T14:53:29;23.90;96.20
19279;DHT22;9773;47.062;15.446;2023-09-07T14:55:56;23.90;96.20
19279;DHT22;9773;47.062;15.446;2023-09-07T14:58:22;24.00;96.00
19279;DHT22;9773;47.062;15.446;2023-09-07T15:00:48;24.20;95.00
19279;DHT22;9773;47.062;15.446;2023-09-07T15:03:14;24.20;95.10
19279;DHT22;9773;47.062;15.446;2023-09-07T15:05:40;24.20;95.00
19279;DHT22;9773;47.062;15.446;2023-09-07T15:08:06;24.20;95.30
19279;DHT22;9773;47.062;15.446;2023-09-07T15:10:33;24.20;95.10
19279;DHT22;9773;47.062;15.446;2023-09-07T15:13:01;24.20;96.00
19279;DHT22;9773;47.062;15.446;2023-09-07T15:15:32;24.20;95.70
19279;DHT22;9773;47.062;15.446;2023-09-07T15:18:02;24.20;95.80
19279;DHT22;9773;47.062;15.446;2023-09-07T15:20:28;24.20;95.80
19279;DHT22;9773;47.062;15.446;2023-09-07T15:22:56;24.20;95.50
19279;DHT22;9773;47.062;15.446;2023-09-07T15:25:22;24.10;96.80
19279;DHT22;9773;47.062;15.446;2023-09-07T15:27:48;24.10;95.80
19279;DHT22;9773;47.062;15.446;2023-09-07T15:30:14;24.20;96.00